Погода Бреховона неделю

Тверская область, Россия

20 - 26 мая
  • 20мая
    Сегодня
    +10°
    +25°
    Ясно и безоблачно
    ВремяПогодаТемператураВлажностьДавлениеВетер, м/сВероятность осадков
    00:00Ясно и безоблачно+11°C56 %751 мм3.9 м/с2 %
    03:00Ясно и безоблачно+9°C69 %751 мм3.6 м/с2 %
    06:00Ясно и безоблачно+11°C75 %751 мм3.3 м/с2 %
    09:00Ясно и безоблачно+18°C60 %751 мм3.1 м/с2 %
    12:00Ясно и безоблачно+23°C49 %750 мм3.2 м/с2 %
    15:00Ясно и безоблачно+24°C39 %750 мм3.2 м/с4 %
    18:00Практически безоблачно+23°C44 %750 мм3.0 м/с6 %
    21:00Практически безоблачно+17°C68 %751 мм2.1 м/с2 %
  • 21мая
    Вторник
    +7°
    +22°
    Ясно и безоблачно
    ВремяПогодаТемператураВлажностьДавлениеВетер, м/сВероятность осадков
    00:00Практически безоблачно+13°C78 %751 мм2.4 м/с1 %
    03:00Ясно и безоблачно+11°C89 %752 мм2.2 м/с1 %
    06:00Небольшая облачность+12°C91 %753 мм1.6 м/с3 %
    09:00Ясно и безоблачно+18°C66 %753 мм2.0 м/с7 %
    12:00Небольшая облачность+20°C51 %754 мм2.9 м/с15 %
    15:00Ясно и безоблачно+21°C39 %753 мм3.0 м/с21 %
    18:00Ясно и безоблачно+21°C39 %754 мм3.3 м/с8 %
    21:00Ясно и безоблачно+14°C45 %754 мм3.3 м/с2 %
  • 22мая
    Среда
    +6°
    +20°
    Ясно и безоблачно
    ВремяПогодаТемператураВлажностьДавлениеВетер, м/сВероятность осадков
    00:00Ясно и безоблачно+10°C53 %755 мм2.2 м/с2 %
    03:00Ясно и безоблачно+7°C71 %755 мм2.1 м/с2 %
    06:00Ясно и безоблачно+9°C67 %756 мм2.7 м/с2 %
    09:00Ясно и безоблачно+16°C43 %757 мм2.8 м/с2 %
    12:00Ясно и безоблачно+19°C36 %757 мм2.9 м/с2 %
    15:00Ясно и безоблачно+19°C35 %757 мм3.3 м/с2 %
    18:00Ясно и безоблачно+19°C39 %757 мм3.4 м/с2 %
    21:00Ясно и безоблачно+13°C55 %757 мм2.8 м/с2 %
  • 23мая
    Четверг
    +5°
    +20°
    Пасмурно, сплошная облачность
    ВремяПогодаТемператураВлажностьДавлениеВетер, м/сВероятность осадков
    00:00Ясно и безоблачно+10°C64 %758 мм2.1 м/с2 %
    03:00Ясно и безоблачно+6°C78 %758 мм2.1 м/с2 %
    06:00Ясно и безоблачно+9°C77 %759 мм1.0 м/с2 %
    09:00Практически безоблачно+15°C53 %760 мм0.7 м/с2 %
    12:00Небольшая облачность+18°C43 %760 мм0.4 м/с2 %
    15:00Пасмурно, сплошная облачность+18°C40 %760 мм0.5 м/с2 %
    18:00Облачно с прояснениями+20°C42 %760 мм0.5 м/с2 %
    21:00Ясно и безоблачно+14°C62 %760 мм2.4 м/с2 %
  • 24мая
    Пятница
    +9°
    +22°
    Практически безоблачно
    ВремяПогодаТемператураВлажностьДавлениеВетер, м/сВероятность осадков
    00:00Практически безоблачно+9°C72 %760 мм2.2 м/с2 %
    03:00Ясно и безоблачно+6°C83 %761 мм2.2 м/с2 %
    06:00Ясно и безоблачно+9°C79 %761 мм2.5 м/с2 %
    09:00Ясно и безоблачно+18°C54 %762 мм2.8 м/с2 %
    12:00Ясно и безоблачно+21°C39 %761 мм3.1 м/с2 %
    15:00Практически безоблачно+22°C35 %760 мм2.8 м/с2 %
    18:00Ясно и безоблачно+21°C39 %759 мм1.8 м/с2 %
    21:00Ясно и безоблачно+16°C56 %759 мм2.7 м/с2 %
Мы используем cookies
Соглашаюсь